Morristown, Arizona
Current Conditions -  °F | °C
As of 12:58 PM on Friday 24 Oct 2014 (Local Time) from KLUF Reporting Station
Clear Clear  
Wind Chill: 89°   Ceiling: Unl
Heat Index: 89°   Visibility: 10mi
Dew Point: 50°   Wind: 0mph
Humidity: 26%   Direction: NA
Pressure: 30"   Gusts: NA
Location:  33.86°N, 112.63°W
Report Text: KLUF 241958Z AUTO 00000KT 10SM CLR 32/10 A3000 RMK AO2 SLP148 T03190101 $
Loading
Personal Weather Stations






























Interactive Weather Map
Tropical Storm Tracking
New forecast layout! Learn more

10-Day Weather Forecast

Advertisements
Track Severe Weather on mobile